createdAt,value
2017-11-07T00:00:01.472Z,16.02
2017-11-07T00:01:14.147Z,16
2017-11-07T00:02:27.760Z,15.93
2017-11-07T00:03:41.653Z,15.93
2017-11-07T00:04:54.774Z,15.89
2017-11-07T00:06:08.899Z,15.9
2017-11-07T00:07:21.595Z,15.83
2017-11-07T00:08:35.525Z,15.89
2017-11-07T00:09:49.404Z,15.78
2017-11-07T00:11:03.117Z,15.8
2017-11-07T00:12:16.028Z,15.78
2017-11-07T00:13:28.475Z,15.71
2017-11-07T00:14:41.504Z,15.69
2017-11-07T00:15:54.449Z,15.65
2017-11-07T00:17:07.990Z,15.57
2017-11-07T00:18:20.966Z,15.56
2017-11-07T00:19:34.221Z,15.53
2017-11-07T00:20:48.027Z,15.49
2017-11-07T00:22:01.759Z,15.41
2017-11-07T00:23:15.316Z,15.46
2017-11-07T00:24:28.784Z,15.39
2017-11-07T00:25:42.643Z,15.29
2017-11-07T00:26:55.223Z,15.25
2017-11-07T00:28:09.242Z,15.19
2017-11-07T00:29:21.829Z,15.25
2017-11-07T00:30:34.963Z,15.19
2017-11-07T00:31:47.734Z,15.23
2017-11-07T00:33:01.177Z,15.13
2017-11-07T00:34:14.452Z,15.23
2017-11-07T00:35:27.062Z,15.23
2017-11-07T00:36:40.038Z,15.23
2017-11-07T00:37:53.011Z,15.23
2017-11-07T00:39:06.218Z,15.16
2017-11-07T00:40:19.883Z,15.23
2017-11-07T00:41:32.698Z,15.27
2017-11-07T00:42:44.649Z,15.2
2017-11-07T00:43:57.774Z,15.14
2017-11-07T00:45:11.574Z,15.19
2017-11-07T00:46:24.731Z,15.17
2017-11-07T00:47:37.176Z,15.21
2017-11-07T00:48:50.072Z,15.21
2017-11-07T00:50:02.861Z,15.25
2017-11-07T00:51:16.194Z,15.21
2017-11-07T00:52:28.952Z,15.21
2017-11-07T00:53:42.310Z,15.35
2017-11-07T00:54:55.677Z,15.34
2017-11-07T00:56:09.032Z,15.39
2017-11-07T00:57:21.784Z,15.32
2017-11-07T00:58:35.099Z,15.36
2017-11-07T00:59:47.360Z,15.44
2017-11-07T01:01:00.136Z,15.39
2017-11-07T01:02:13.501Z,15.49
2017-11-07T01:03:25.780Z,15.54
2017-11-07T01:04:38.031Z,15.5
2017-11-07T01:08:07.394Z,15.64
2017-11-07T01:09:19.117Z,15.64
2017-11-07T01:10:32.399Z,15.67
2017-11-07T01:11:44.079Z,15.65
2017-11-07T01:12:56.293Z,15.67
2017-11-07T01:14:09.567Z,15.72
2017-11-07T01:15:22.359Z,15.78
2017-11-07T01:16:35.162Z,15.86
2017-11-07T01:17:47.941Z,15.76
2017-11-07T01:19:00.748Z,15.8
2017-11-07T01:20:13.606Z,15.75
2017-11-07T01:21:26.905Z,15.87
2017-11-07T01:22:39.131Z,15.87
2017-11-07T01:23:52.508Z,15.87
2017-11-07T01:25:05.249Z,16
2017-11-07T01:26:18.493Z,15.96
2017-11-07T01:27:30.184Z,15.96
2017-11-07T01:28:42.927Z,15.96
2017-11-07T01:29:56.226Z,15.97
2017-11-07T01:31:09.570Z,16.04
2017-11-07T01:32:22.886Z,16.09
2017-11-07T01:33:35.105Z,16.01
2017-11-07T01:34:48.459Z,16.07
2017-11-07T01:36:01.735Z,16.02
2017-11-07T01:37:14.996Z,16.05
2017-11-07T01:38:27.718Z,16
2017-11-07T01:39:40.539Z,16.05
2017-11-07T01:40:53.818Z,16.07
2017-11-07T01:42:07.080Z,16.05
2017-11-07T01:43:19.319Z,16.02
2017-11-07T01:44:32.112Z,16.01
2017-11-07T01:45:45.439Z,16.07
2017-11-07T01:46:58.213Z,16.01
2017-11-07T01:48:11.049Z,16.09
2017-11-07T01:49:24.321Z,16.05
2017-11-07T01:50:37.613Z,16.08
2017-11-07T01:51:49.292Z,16.04
2017-11-07T01:53:02.585Z,16.04
2017-11-07T01:54:15.863Z,16.09
2017-11-07T01:55:28.040Z,16.07
2017-11-07T01:56:41.355Z,16.08
2017-11-07T01:57:54.156Z,15.93
2017-11-07T01:59:07.404Z,15.93
2017-11-07T02:00:20.162Z,16.01
2017-11-07T02:01:32.939Z,16.01
2017-11-07T02:02:46.192Z,15.92
2017-11-07T02:03:58.388Z,15.94
2017-11-07T02:05:11.675Z,15.89
2017-11-07T02:06:25.087Z,15.9
2017-11-07T02:07:38.492Z,15.9
2017-11-07T02:08:51.409Z,15.92
2017-11-07T02:10:04.181Z,15.87
2017-11-07T02:11:17.459Z,15.92
2017-11-07T02:12:30.212Z,15.94
2017-11-07T02:13:43.515Z,16.01
2017-11-07T02:14:56.247Z,16.02
2017-11-07T02:16:08.956Z,16.05
2017-11-07T02:17:21.694Z,16.09
2017-11-07T02:18:34.444Z,16.05
2017-11-07T02:19:47.133Z,16.11
2017-11-07T02:20:58.846Z,16.09
2017-11-07T02:22:11.567Z,16.2
2017-11-07T02:23:24.388Z,16.21
2017-11-07T02:24:37.726Z,16.12
2017-11-07T02:25:50.965Z,16.2
2017-11-07T02:27:04.278Z,16.15
2017-11-07T02:28:17.557Z,16.15
2017-11-07T02:29:29.226Z,16.17
2017-11-07T02:30:42.540Z,16.14
2017-11-07T02:31:56.039Z,16.27
2017-11-07T02:33:08.866Z,16.09
2017-11-07T02:34:21.611Z,16.04
2017-11-07T02:35:33.856Z,16.04
2017-11-07T02:36:47.134Z,16.02
2017-11-07T02:37:59.913Z,16.05
2017-11-07T02:39:13.202Z,16.09
2017-11-07T02:40:25.408Z,16.07
2017-11-07T02:41:38.196Z,16.01
2017-11-07T02:42:50.979Z,16.04
2017-11-07T02:44:04.269Z,15.96
2017-11-07T02:45:17.077Z,15.84
2017-11-07T02:46:29.336Z,15.8
2017-11-07T02:47:42.105Z,15.74
2017-11-07T02:48:54.819Z,15.71
2017-11-07T02:50:07.557Z,15.74
2017-11-07T02:51:19.783Z,15.67
2017-11-07T02:52:32.585Z,15.64
2017-11-07T02:53:45.852Z,15.64
2017-11-07T02:54:58.601Z,15.74
2017-11-07T02:56:11.347Z,15.67
2017-11-07T02:57:24.096Z,15.67
2017-11-07T02:58:37.386Z,15.67
2017-11-07T02:59:50.382Z,15.72
2017-11-07T03:01:03.741Z,15.69
2017-11-07T03:02:17.063Z,15.56
2017-11-07T03:03:29.941Z,15.67
2017-11-07T03:04:42.678Z,15.64
2017-11-07T03:05:54.944Z,15.56
2017-11-07T03:07:08.250Z,15.53
2017-11-07T03:08:21.581Z,15.5
2017-11-07T03:09:33.798Z,15.49
2017-11-07T03:10:46.581Z,15.51
2017-11-07T03:11:59.319Z,15.46
2017-11-07T03:13:12.082Z,15.41
2017-11-07T03:14:24.298Z,15.35
2017-11-07T03:15:37.551Z,15.34
2017-11-07T03:16:50.318Z,15.32
2017-11-07T03:18:02.005Z,15.31
2017-11-07T03:19:15.374Z,15.39
2017-11-07T03:20:28.693Z,15.36
2017-11-07T03:21:40.892Z,15.32
2017-11-07T03:22:54.554Z,15.28
2017-11-07T03:24:07.405Z,15.28
2017-11-07T03:25:21.319Z,15.31
2017-11-07T03:26:34.615Z,15.31
2017-11-07T03:27:46.846Z,15.41
2017-11-07T03:28:59.046Z,15.38
2017-11-07T03:30:11.846Z,15.36
2017-11-07T03:31:24.594Z,15.38
2017-11-07T03:32:37.876Z,15.28
2017-11-07T03:33:51.187Z,15.28
2017-11-07T03:35:03.384Z,15.19
2017-11-07T03:36:16.356Z,15.16
2017-11-07T03:37:29.640Z,15.21
2017-11-07T03:38:41.870Z,15.11
2017-11-07T03:39:55.126Z,15.1
2017-11-07T03:41:07.352Z,15.14
2017-11-07T03:42:20.114Z,15.11
2017-11-07T03:43:33.456Z,15.1
2017-11-07T03:44:46.741Z,15.16
2017-11-07T03:45:59.484Z,15.19
2017-11-07T03:47:11.728Z,15.14
2017-11-07T03:48:23.951Z,15.19
2017-11-07T03:49:36.161Z,15.13
2017-11-07T03:50:48.370Z,15.16
2017-11-07T03:52:00.591Z,15.16
2017-11-07T03:53:13.329Z,15.2
2017-11-07T03:54:25.553Z,15.1
2017-11-07T03:55:37.746Z,15.1
2017-11-07T03:56:51.092Z,15.16
2017-11-07T03:58:03.843Z,15.09
2017-11-07T03:59:16.828Z,15.14
2017-11-07T04:00:30.139Z,15.17
2017-11-07T04:01:43.462Z,15.13
2017-11-07T04:02:56.238Z,15.2
2017-11-07T04:04:09.014Z,15.21
2017-11-07T04:05:21.244Z,15.06
2017-11-07T04:06:33.984Z,15.11
2017-11-07T04:07:47.288Z,15.09
2017-11-07T04:09:00.103Z,15.01
2017-11-07T04:10:12.857Z,14.92
2017-11-07T04:11:25.614Z,14.92
2017-11-07T04:12:38.346Z,14.81
2017-11-07T04:13:51.084Z,14.88
2017-11-07T04:15:04.422Z,15.01
2017-11-07T04:16:17.729Z,15.1
2017-11-07T04:17:30.478Z,15.02
2017-11-07T04:18:43.256Z,15.06
2017-11-07T04:19:56.527Z,15.03
2017-11-07T04:21:09.481Z,15.02
2017-11-07T04:22:22.466Z,14.98
2017-11-07T04:23:35.392Z,15.07
2017-11-07T04:24:47.750Z,15.01
2017-11-07T04:26:00.509Z,15.16
2017-11-07T04:27:13.286Z,15.14
2017-11-07T04:28:25.554Z,15.1
2017-11-07T04:29:37.830Z,15.06
2017-11-07T04:30:51.143Z,15.09
2017-11-07T04:32:03.905Z,15.07
2017-11-07T04:33:16.114Z,14.99
2017-11-07T04:34:29.453Z,15.03
2017-11-07T04:35:42.187Z,15.02
2017-11-07T04:36:55.439Z,15.01
2017-11-07T04:38:08.418Z,15.02
2017-11-07T04:39:20.613Z,14.98
2017-11-07T04:40:33.383Z,15.03
2017-11-07T04:41:45.612Z,15.09
2017-11-07T04:42:58.962Z,15.02
2017-11-07T04:44:11.692Z,14.95
2017-11-07T04:45:23.900Z,15.01
2017-11-07T04:46:37.185Z,14.99
2017-11-07T04:47:50.499Z,15.01
2017-11-07T04:49:03.792Z,15.02
2017-11-07T04:50:16.047Z,14.89
2017-11-07T04:51:28.291Z,14.88
2017-11-07T04:52:41.076Z,15.06
2017-11-07T04:53:53.344Z,15.07
2017-11-07T04:55:06.147Z,15.09
2017-11-07T04:56:19.413Z,15.13
2017-11-07T04:57:32.183Z,15.23
2017-11-07T04:58:45.434Z,15.25
2017-11-07T04:59:58.192Z,15.13
2017-11-07T05:01:11.486Z,15.17
2017-11-07T05:02:24.217Z,15.11
2017-11-07T05:03:36.964Z,15.17
2017-11-07T05:04:49.206Z,15.11
2017-11-07T05:06:01.978Z,15.13
2017-11-07T05:07:14.219Z,15.06
2017-11-07T05:08:27.534Z,15.06
2017-11-07T05:09:40.815Z,15.09
2017-11-07T05:10:53.071Z,15.19
2017-11-07T05:12:05.309Z,15.01
2017-11-07T05:13:18.061Z,14.94
2017-11-07T05:14:31.372Z,15.02
2017-11-07T05:15:44.184Z,15.01
2017-11-07T05:16:57.514Z,14.92
2017-11-07T05:18:11.003Z,14.88
2017-11-07T05:19:23.793Z,14.94
2017-11-07T05:20:36.057Z,14.94
2017-11-07T05:21:49.371Z,14.91
2017-11-07T05:23:02.161Z,14.94
2017-11-07T05:24:15.404Z,14.94
2017-11-07T05:25:28.670Z,14.89
2017-11-07T05:26:41.958Z,14.89
2017-11-07T05:27:55.236Z,14.92
2017-11-07T05:29:08.568Z,15.03
2017-11-07T05:30:21.492Z,14.98
2017-11-07T05:31:34.271Z,15.02
2017-11-07T05:32:47.016Z,15.02
2017-11-07T05:34:00.284Z,14.96
2017-11-07T05:35:13.597Z,15.02
2017-11-07T05:36:25.844Z,14.99
2017-11-07T05:37:38.583Z,15.14
2017-11-07T05:38:51.832Z,15.1
2017-11-07T05:40:05.115Z,15.09
2017-11-07T05:41:16.874Z,15.02
2017-11-07T05:42:30.161Z,14.99
2017-11-07T05:43:43.465Z,14.89
2017-11-07T05:44:56.742Z,14.95
2017-11-07T05:46:09.501Z,14.89
2017-11-07T05:47:22.304Z,14.92
2017-11-07T05:48:35.584Z,14.95
2017-11-07T05:49:47.807Z,14.94
2017-11-07T05:51:01.064Z,14.92
2017-11-07T05:52:13.830Z,14.81
2017-11-07T05:53:26.070Z,14.86
2017-11-07T05:54:38.825Z,14.8
2017-11-07T05:55:51.073Z,14.88
2017-11-07T05:57:02.745Z,14.8
2017-11-07T05:58:16.017Z,14.84
2017-11-07T05:59:29.268Z,14.94
2017-11-07T06:00:42.531Z,14.83
2017-11-07T06:01:56.103Z,14.81
2017-11-07T06:03:09.436Z,14.8
2017-11-07T06:04:23.726Z,14.81
2017-11-07T06:05:36.803Z,14.86
2017-11-07T06:06:50.265Z,14.8
2017-11-07T06:08:04.064Z,14.92
2017-11-07T06:09:17.285Z,14.88
2017-11-07T06:10:30.941Z,14.89
2017-11-07T06:11:43.770Z,14.95
2017-11-07T06:12:57.144Z,14.88
2017-11-07T06:14:10.424Z,14.95
2017-11-07T06:15:23.991Z,14.95
2017-11-07T06:16:36.842Z,14.77
2017-11-07T06:17:50.121Z,14.94
2017-11-07T06:19:03.465Z,14.83
2017-11-07T06:20:16.207Z,14.77
2017-11-07T06:21:29.518Z,14.95
2017-11-07T06:22:42.299Z,14.78
2017-11-07T06:23:55.134Z,14.83
2017-11-07T06:25:07.922Z,14.88
2017-11-07T06:26:19.889Z,14.81
2017-11-07T06:27:33.762Z,14.98
2017-11-07T06:28:46.297Z,14.92
2017-11-07T06:29:59.482Z,14.94
2017-11-07T06:31:12.846Z,14.94
2017-11-07T06:32:25.616Z,14.92
2017-11-07T06:33:38.720Z,14.92
2017-11-07T06:34:51.431Z,15.01
2017-11-07T06:36:04.715Z,14.99
2017-11-07T06:37:18.724Z,15.07
2017-11-07T06:38:31.646Z,15.07
2017-11-07T06:39:45.773Z,15.03
2017-11-07T06:40:59.926Z,15.02
2017-11-07T06:42:13.680Z,15.01
2017-11-07T06:43:27.190Z,15.07
2017-11-07T06:44:40.618Z,15.07
2017-11-07T06:45:54.695Z,15.02
2017-11-07T06:47:08.960Z,15.06
2017-11-07T06:48:22.973Z,15.02
2017-11-07T06:49:36.431Z,15.06
2017-11-07T06:50:49.794Z,15.01
2017-11-07T06:52:02.346Z,14.95
2017-11-07T06:53:16.366Z,14.95
2017-11-07T06:54:29.982Z,14.94
2017-11-07T06:55:43.000Z,15.01
2017-11-07T06:56:56.621Z,15.01
2017-11-07T06:58:09.696Z,14.92
2017-11-07T06:59:22.753Z,15.03
2017-11-07T07:00:36.863Z,14.99
2017-11-07T07:01:50.554Z,14.92
2017-11-07T07:03:04.207Z,14.92
2017-11-07T07:04:17.817Z,14.99
2017-11-07T07:05:31.292Z,14.92
2017-11-07T07:06:44.050Z,14.91
2017-11-07T07:07:57.259Z,15.1
2017-11-07T07:09:10.742Z,14.99
2017-11-07T07:10:24.855Z,15.07
2017-11-07T07:11:38.563Z,15.13
2017-11-07T07:12:51.874Z,15.1
2017-11-07T07:14:05.752Z,15.07
2017-11-07T07:15:19.054Z,15.11
2017-11-07T07:16:32.869Z,15.11
2017-11-07T07:17:47.004Z,15.02
2017-11-07T07:19:00.691Z,15.03
2017-11-07T07:20:14.223Z,15.01
2017-11-07T07:21:28.423Z,15.01
2017-11-07T07:22:42.475Z,15.01
2017-11-07T07:23:55.932Z,14.99
2017-11-07T07:25:09.995Z,15.02
2017-11-07T07:26:23.630Z,14.98
2017-11-07T07:27:36.889Z,15.03
2017-11-07T07:28:51.004Z,15.07
2017-11-07T07:30:04.841Z,15.1
2017-11-07T07:31:18.213Z,15.09
2017-11-07T07:32:32.192Z,15.1
2017-11-07T07:33:46.021Z,15.1
2017-11-07T07:34:59.234Z,15.06
2017-11-07T07:36:13.150Z,15.02
2017-11-07T07:37:26.518Z,15.02
2017-11-07T07:38:39.415Z,15.11
2017-11-07T07:39:51.831Z,15.09
2017-11-07T07:41:05.174Z,15.07
2017-11-07T07:42:17.806Z,15.19
2017-11-07T07:43:30.552Z,15.16
2017-11-07T07:44:43.862Z,15.13
2017-11-07T07:45:57.292Z,15.17
2017-11-07T07:47:10.309Z,15.2
2017-11-07T07:48:23.440Z,15.28
2017-11-07T07:49:37.214Z,15.25
2017-11-07T07:50:51.276Z,15.34
2017-11-07T07:52:04.940Z,15.32
2017-11-07T07:53:17.211Z,15.36
2017-11-07T07:54:30.154Z,15.39
2017-11-07T07:55:43.131Z,15.39
2017-11-07T07:56:55.389Z,15.44
2017-11-07T07:58:08.170Z,15.41
2017-11-07T07:59:20.944Z,15.46
2017-11-07T08:00:32.613Z,15.41
2017-11-07T08:01:45.375Z,15.39
2017-11-07T08:02:58.743Z,15.46
2017-11-07T08:04:11.631Z,15.51
2017-11-07T08:05:24.937Z,15.51
2017-11-07T08:06:37.146Z,15.49
2017-11-07T08:07:49.866Z,15.46
2017-11-07T08:09:02.659Z,15.5
2017-11-07T08:10:15.466Z,15.53
2017-11-07T08:11:28.720Z,15.49
2017-11-07T08:12:41.700Z,15.49
2017-11-07T08:13:54.985Z,15.41
2017-11-07T08:15:07.206Z,15.44
2017-11-07T08:16:18.883Z,15.39
2017-11-07T08:17:31.214Z,15.41
2017-11-07T08:18:43.946Z,15.43
2017-11-07T08:19:57.233Z,15.36
2017-11-07T08:21:10.526Z,15.38
2017-11-07T08:22:23.284Z,15.41
2017-11-07T08:23:36.562Z,15.39
2017-11-07T08:24:49.289Z,15.43
2017-11-07T08:26:02.091Z,15.36
2017-11-07T08:27:14.353Z,15.36
2017-11-07T08:28:27.109Z,15.38
2017-11-07T08:29:39.342Z,15.39
2017-11-07T08:30:52.627Z,15.38
2017-11-07T08:32:04.837Z,15.46
2017-11-07T08:33:17.060Z,15.36
2017-11-07T08:34:29.798Z,15.43
2017-11-07T08:35:42.528Z,15.49
2017-11-07T08:36:56.051Z,15.57
2017-11-07T08:38:09.173Z,15.53
2017-11-07T08:39:21.949Z,15.5
2017-11-07T08:40:35.242Z,15.64
2017-11-07T08:41:47.948Z,15.64
2017-11-07T08:43:01.262Z,15.65
2017-11-07T08:44:14.589Z,15.65
2017-11-07T08:45:27.344Z,15.71
2017-11-07T08:46:40.619Z,15.74
2017-11-07T08:47:53.345Z,15.74
2017-11-07T08:49:06.640Z,15.71
2017-11-07T08:50:19.377Z,15.78
2017-11-07T08:51:32.157Z,15.8
2017-11-07T08:52:44.392Z,15.78
2017-11-07T08:53:57.632Z,15.87
2017-11-07T08:55:10.412Z,15.83
2017-11-07T08:56:23.182Z,15.94
2017-11-07T08:57:36.468Z,15.94
2017-11-07T08:58:49.806Z,16.01
2017-11-07T09:00:03.167Z,16.04
2017-11-07T09:01:15.421Z,16.01
2017-11-07T09:02:28.156Z,16
2017-11-07T09:03:40.393Z,16
2017-11-07T09:04:53.747Z,16.08
2017-11-07T09:06:07.760Z,16.08
2017-11-07T09:07:20.980Z,16.24
2017-11-07T09:08:33.749Z,16.31
2017-11-07T09:09:47.144Z,16.46
2017-11-07T09:11:01.032Z,16.49
2017-11-07T09:12:14.517Z,16.5
2017-11-07T09:13:27.869Z,16.61
2017-11-07T09:14:41.342Z,16.6
2017-11-07T09:15:54.928Z,16.73
2017-11-07T09:17:08.576Z,16.71
2017-11-07T09:18:22.307Z,16.86
2017-11-07T09:19:35.327Z,16.96
2017-11-07T09:20:48.395Z,17
2017-11-07T09:22:01.822Z,17
2017-11-07T09:23:13.535Z,17.03
2017-11-07T09:24:25.259Z,16.89
2017-11-07T09:25:38.746Z,16.82
2017-11-07T09:26:51.649Z,16.86
2017-11-07T09:28:05.192Z,17
2017-11-07T09:29:18.479Z,16.82
2017-11-07T09:30:32.027Z,16.81
2017-11-07T09:31:44.171Z,16.83
2017-11-07T09:32:57.489Z,16.91
2017-11-07T09:34:11.456Z,16.85
2017-11-07T09:35:24.741Z,16.83
2017-11-07T09:36:37.397Z,16.88
2017-11-07T09:37:50.726Z,16.86
2017-11-07T09:39:03.812Z,17.03
2017-11-07T09:40:16.925Z,17.01
2017-11-07T09:41:29.132Z,17.07
2017-11-07T09:42:42.109Z,17.19
2017-11-07T09:43:55.653Z,17.28
2017-11-07T09:45:08.987Z,17.25
2017-11-07T09:46:22.485Z,17.25
2017-11-07T09:47:35.641Z,17.26
2017-11-07T09:48:49.149Z,17.34
2017-11-07T09:50:03.050Z,17.44
2017-11-07T09:51:16.052Z,17.63
2017-11-07T09:52:29.670Z,17.86
2017-11-07T09:53:43.083Z,17.93
2017-11-07T09:54:56.688Z,18
2017-11-07T09:56:09.297Z,18.37
2017-11-07T09:57:23.461Z,18.54
2017-11-07T09:58:37.632Z,18.51
2017-11-07T09:59:51.100Z,18.73
2017-11-07T10:01:04.118Z,18.88
2017-11-07T10:02:17.691Z,18.95
2017-11-07T10:03:31.017Z,19.07
2017-11-07T10:04:44.046Z,19.25
2017-11-07T10:05:58.239Z,19.23
2017-11-07T10:07:11.797Z,19.07
2017-11-07T10:08:25.753Z,19.22
2017-11-07T10:09:39.628Z,19.63
2017-11-07T10:10:53.655Z,19.87
2017-11-07T10:12:07.186Z,20.13
2017-11-07T10:13:20.582Z,20.1
2017-11-07T10:14:34.121Z,20.02
2017-11-07T10:15:46.866Z,19.55
2017-11-07T10:17:00.282Z,19.78
2017-11-07T10:18:12.599Z,19.8
2017-11-07T10:19:25.394Z,19.86
2017-11-07T10:20:37.686Z,20.06
2017-11-07T10:21:51.631Z,19.98
2017-11-07T10:23:04.510Z,19.76
2017-11-07T10:24:17.789Z,19.44
2017-11-07T10:25:31.944Z,19.36
2017-11-07T10:26:46.017Z,19.28
2017-11-07T10:27:59.127Z,19.1
2017-11-07T10:29:12.573Z,19.21
2017-11-07T10:30:26.712Z,19.4
2017-11-07T10:31:40.754Z,19.84
2017-11-07T10:32:54.701Z,20.21
2017-11-07T10:34:08.133Z,19.81
2017-11-07T10:35:21.749Z,19.73
2017-11-07T10:36:36.238Z,19.5
2017-11-07T10:37:49.577Z,19.51
2017-11-07T10:39:03.674Z,19.47
2017-11-07T10:40:16.704Z,19.74
2017-11-07T10:41:30.216Z,20.02
2017-11-07T10:42:43.467Z,19.96
2017-11-07T10:43:57.553Z,20.13
2017-11-07T10:45:10.526Z,20.48
2017-11-07T10:46:24.117Z,20.48
2017-11-07T10:47:37.255Z,20.24
2017-11-07T10:48:50.281Z,20.33
2017-11-07T10:50:03.295Z,20.76
2017-11-07T10:51:16.111Z,20.92
2017-11-07T10:52:29.090Z,20.52
2017-11-07T10:53:42.608Z,20.26
2017-11-07T10:54:56.571Z,20.21
2017-11-07T10:56:09.840Z,20.39
2017-11-07T10:57:23.284Z,20.48
2017-11-07T10:58:37.467Z,20.54
2017-11-07T10:59:51.697Z,20.74
2017-11-07T11:01:04.646Z,21.12
2017-11-07T11:02:18.134Z,20.97
2017-11-07T11:03:30.493Z,20.52
2017-11-07T11:04:44.107Z,20.69
2017-11-07T11:05:57.535Z,20.92
2017-11-07T11:07:10.148Z,21.4
2017-11-07T11:08:24.157Z,21.56
2017-11-07T11:09:37.697Z,21.75
2017-11-07T11:10:50.009Z,21.44
2017-11-07T11:12:03.042Z,21.12
2017-11-07T11:13:16.449Z,20.95
2017-11-07T11:14:29.385Z,21.13
2017-11-07T11:15:43.461Z,21.29
2017-11-07T11:16:57.510Z,21.07
2017-11-07T11:18:11.016Z,20.69
2017-11-07T11:19:25.082Z,20.47
2017-11-07T11:20:39.304Z,20.39
2017-11-07T11:21:53.310Z,20.33
2017-11-07T11:23:06.691Z,20.11
2017-11-07T11:24:20.645Z,20.21
2017-11-07T11:25:34.751Z,19.98
2017-11-07T11:26:48.877Z,20.01
2017-11-07T11:28:02.326Z,19.84
2017-11-07T11:29:14.736Z,19.81
2017-11-07T11:30:27.506Z,19.92
2017-11-07T11:31:41.681Z,20.26
2017-11-07T11:32:55.529Z,20.55
2017-11-07T11:34:08.973Z,20.77
2017-11-07T11:35:23.178Z,20.74
2017-11-07T11:36:36.092Z,20.73
2017-11-07T11:37:49.001Z,21.25
2017-11-07T11:39:01.794Z,21.67
2017-11-07T11:40:14.551Z,21.77
2017-11-07T11:41:28.183Z,21.84
2017-11-07T11:42:41.283Z,21.8
2017-11-07T11:43:55.305Z,21.72
2017-11-07T11:45:08.444Z,21.65
2017-11-07T11:46:22.358Z,21.71
2017-11-07T11:47:36.384Z,21.69
2017-11-07T11:48:50.424Z,21.77
2017-11-07T11:50:03.149Z,21.56
2017-11-07T11:51:16.823Z,21.52
2017-11-07T11:52:30.290Z,21.46
2017-11-07T11:53:43.143Z,21.29
2017-11-07T11:54:54.358Z,21.34
2017-11-07T11:56:05.528Z,21.37
2017-11-07T11:57:18.508Z,21.61
2017-11-07T11:58:31.791Z,21.98
2017-11-07T11:59:44.057Z,22.22
2017-11-07T12:00:56.254Z,22.54
2017-11-07T12:02:08.488Z,22.72
2017-11-07T12:03:20.750Z,22.91
2017-11-07T12:04:33.601Z,22.7
2017-11-07T12:05:46.429Z,22.37
2017-11-07T12:06:58.676Z,22.18
2017-11-07T12:08:11.449Z,22.1
2017-11-07T12:09:24.594Z,22.2
2017-11-07T12:10:37.459Z,22.27
2017-11-07T12:11:51.134Z,22.3
2017-11-07T12:13:04.031Z,22.21
2017-11-07T12:14:17.043Z,22.65
2017-11-07T12:15:30.707Z,23
2017-11-07T12:16:43.725Z,23.02
2017-11-07T12:17:57.887Z,23.1
2017-11-07T12:19:12.219Z,23.31
2017-11-07T12:20:25.854Z,23.2
2017-11-07T12:21:40.067Z,23.15
2017-11-07T12:22:54.409Z,22.94
2017-11-07T12:24:08.157Z,23
2017-11-07T12:25:21.271Z,22.86
2017-11-07T12:26:35.470Z,22.75
2017-11-07T12:27:49.472Z,22.9
2017-11-07T12:29:03.728Z,23.2
2017-11-07T12:30:17.405Z,23.61
2017-11-07T12:31:30.498Z,23.33
2017-11-07T12:32:44.184Z,23.07
2017-11-07T12:33:56.634Z,22.97
2017-11-07T12:35:10.767Z,22.95
2017-11-07T12:36:24.937Z,22.7
2017-11-07T12:37:37.425Z,22.79
2017-11-07T12:38:51.043Z,22.67
2017-11-07T12:40:04.836Z,22.54
2017-11-07T12:41:18.493Z,22.45
2017-11-07T12:42:32.753Z,22.3
2017-11-07T12:43:47.173Z,22.7
2017-11-07T12:45:00.335Z,23.27
2017-11-07T12:46:14.536Z,23.73
2017-11-07T12:47:28.975Z,24.15
2017-11-07T12:48:43.298Z,24.39
2017-11-07T12:49:56.872Z,24.71
2017-11-07T12:51:11.191Z,24.61
2017-11-07T12:52:25.009Z,24.78
2017-11-07T12:53:39.086Z,25.05
2017-11-07T12:54:52.640Z,25.03
2017-11-07T12:56:06.531Z,24.99
2017-11-07T12:57:20.806Z,24.91
2017-11-07T12:58:34.221Z,24.95
2017-11-07T12:59:48.310Z,25
2017-11-07T13:01:01.878Z,25.13
2017-11-07T13:02:14.811Z,24.98
2017-11-07T13:03:28.348Z,25
2017-11-07T13:04:41.683Z,24.95
2017-11-07T13:05:55.369Z,24.91
2017-11-07T13:07:08.921Z,25.05
2017-11-07T13:08:23.277Z,24.58
2017-11-07T13:09:36.977Z,24.61
2017-11-07T13:10:48.882Z,24.91
2017-11-07T13:12:01.311Z,24.65
2017-11-07T13:13:14.884Z,24.53
2017-11-07T13:14:29.139Z,24
2017-11-07T13:15:41.604Z,23.91
2017-11-07T13:16:55.983Z,24.08
2017-11-07T13:18:09.672Z,24
2017-11-07T13:19:24.047Z,24.12
2017-11-07T13:20:37.763Z,24.1
2017-11-07T13:21:52.073Z,23.9
2017-11-07T13:23:05.617Z,23.93
2017-11-07T13:24:19.986Z,24.2
2017-11-07T13:25:34.487Z,24.12
2017-11-07T13:26:48.698Z,23.95
2017-11-07T13:28:02.215Z,23.93
2017-11-07T13:29:14.759Z,24.27
2017-11-07T13:30:28.377Z,24.6
2017-11-07T13:31:42.265Z,24.43
2017-11-07T13:32:55.533Z,24.81
2017-11-07T13:34:09.828Z,25.15
2017-11-07T13:35:24.057Z,25.39
2017-11-07T13:36:39.021Z,25.35
2017-11-07T13:37:52.716Z,25.28
2017-11-07T13:39:06.939Z,24.99
2017-11-07T13:40:20.659Z,25.05
2017-11-07T13:41:35.853Z,25.85
2017-11-07T13:42:50.179Z,26.66
2017-11-07T13:44:02.420Z,26.57
2017-11-07T13:45:16.519Z,26.05
2017-11-07T13:46:30.943Z,25.64
2017-11-07T13:47:45.047Z,25.32
2017-11-07T13:48:59.139Z,25
2017-11-07T13:50:11.882Z,24.65
2017-11-07T13:51:25.155Z,24.64
2017-11-07T13:52:39.441Z,24.69
2017-11-07T13:53:53.458Z,24.37
2017-11-07T13:55:06.821Z,24.3
2017-11-07T13:56:20.754Z,24.77
2017-11-07T13:57:34.947Z,25.2
2017-11-07T13:58:48.861Z,25
2017-11-07T14:00:02.547Z,24.34
2017-11-07T14:01:16.888Z,24.53
2017-11-07T14:02:30.990Z,25
2017-11-07T14:03:45.157Z,24.98
2017-11-07T14:04:58.629Z,25.61
2017-11-07T14:06:12.625Z,26.55
2017-11-07T14:07:25.096Z,26.67
2017-11-07T14:08:38.050Z,26.7
2017-11-07T14:09:51.750Z,26.8
2017-11-07T14:11:05.352Z,26.66
2017-11-07T14:12:18.373Z,26.06
2017-11-07T14:13:32.079Z,26.02
2017-11-07T14:14:46.322Z,25.57
2017-11-07T14:16:00.136Z,25.51
2017-11-07T14:17:13.713Z,25.9
2017-11-07T14:18:27.710Z,25.55
2017-11-07T14:19:41.357Z,25.1
2017-11-07T14:20:55.507Z,25.23
2017-11-07T14:22:09.908Z,25.4
2017-11-07T14:23:22.807Z,25.69
2017-11-07T14:24:36.070Z,25.98
2017-11-07T14:25:49.885Z,25.98
2017-11-07T14:27:03.485Z,25.47
2017-11-07T14:28:16.913Z,25.15
2017-11-07T14:29:30.754Z,25.17
2017-11-07T14:30:44.644Z,25.08
2017-11-07T14:31:57.421Z,25
2017-11-07T14:33:11.708Z,24.61
2017-11-07T14:34:24.854Z,24.4
2017-11-07T14:35:39.065Z,24.61
2017-11-07T14:36:51.950Z,25.06
2017-11-07T14:38:05.444Z,25.27
2017-11-07T14:39:19.106Z,25.32
2017-11-07T14:40:32.404Z,25.05
2017-11-07T14:41:46.036Z,25.02
2017-11-07T14:42:59.582Z,25.82
2017-11-07T14:44:12.023Z,26.21
2017-11-07T14:45:25.658Z,26.29
2017-11-07T14:46:39.568Z,26.21
2017-11-07T14:47:52.244Z,25.82
2017-11-07T14:49:05.248Z,25.27
2017-11-07T14:50:18.808Z,25.57
2017-11-07T14:51:31.247Z,25.73
2017-11-07T14:52:45.201Z,25.36
2017-11-07T14:53:59.257Z,24.55
2017-11-07T14:55:12.621Z,24.4
2017-11-07T14:56:25.172Z,24.91
2017-11-07T14:57:39.122Z,25.05
2017-11-07T14:58:53.382Z,25.69
2017-11-07T15:00:07.373Z,26.2
2017-11-07T15:01:20.905Z,26.02
2017-11-07T15:02:34.734Z,25.92
2017-11-07T15:03:48.556Z,26.28
2017-11-07T15:05:02.155Z,26.54
2017-11-07T15:06:14.972Z,26.6
2017-11-07T15:07:28.399Z,27.09
2017-11-07T15:08:41.796Z,27.63
2017-11-07T15:09:55.272Z,27.44
2017-11-07T15:11:08.752Z,26.65
2017-11-07T15:12:22.878Z,26.65
2017-11-07T15:13:36.884Z,26.6
2017-11-07T15:14:50.150Z,25.72
2017-11-07T15:16:03.843Z,25.8
2017-11-07T15:17:16.484Z,25.76
2017-11-07T15:18:29.740Z,25.4
2017-11-07T15:19:41.917Z,25.18
2017-11-07T15:20:54.503Z,25.27
2017-11-07T15:22:07.406Z,25.83
2017-11-07T15:23:19.789Z,25.85
2017-11-07T15:24:33.949Z,25.35
2017-11-07T15:25:47.332Z,25.05
2017-11-07T15:26:59.996Z,25.2
2017-11-07T15:28:13.371Z,25.72
2017-11-07T15:29:26.824Z,26.12
2017-11-07T15:30:40.075Z,26.47
2017-11-07T15:31:54.382Z,26.45
2017-11-07T15:33:07.934Z,25.4
2017-11-07T15:34:21.733Z,24.57
2017-11-07T15:35:35.747Z,24.32
2017-11-07T15:36:49.313Z,23.88
2017-11-07T15:38:02.878Z,23.91
2017-11-07T15:39:17.099Z,24.02
2017-11-07T15:40:30.345Z,24.39
2017-11-07T15:41:43.462Z,24.21
2017-11-07T15:42:56.892Z,23.68
2017-11-07T15:44:10.566Z,23.19
2017-11-07T15:45:24.200Z,23.01
2017-11-07T15:46:37.242Z,22.8
2017-11-07T15:47:50.686Z,22.6
2017-11-07T15:49:04.928Z,22.83